PST: 17:40 MST: 18:40 CST: 19:40 EST: 20:40 LDN: 01:40 UTC: 00:40
User Agent: CCBot/2.0 (https://commoncrawl.org/faq/)
IP Address: 107.23.129.77
Hostname: ec2-107-23-129-77.compute-1.amazonaws.com

METAR:
KBFI 192353Z 27006KT 10SM SCT045 SCT100 21/08 A2971 RMK AO2 SLP060 T02110078 10217 20161 55006
KBFI 192253Z 10SM FEW050 SCT080 21/07 A2971 RMK AO2 SLP060 T02110072
KBFI 192153Z COR VRB04KT 10SM FEW050 SCT080 21/07 A2972 RMK AO2 SLP062 T02060072
KBFI 192053Z VRB05KT 10SM FEW050 BKN090 20/08 A2973 RMK AO2 SLP066 T02000083 58004

TAF:
KBFI 192325Z 2000/2024 VRB05KT P6SM SCT060 SCT120 SCT200
FM 200300 VRB05KT P6SM SCT060 BKN120 BKN200
FM 200700 17005KT P6SM SCT030 OVC050
FM 201100 17007KT P6SM BKN025 OVC040
FM 201800 18007KT P6SM -SHRA BKN030 OVC045

KBFI 191732Z 1918/2018 VRB05KT P6SM VCSH BKN070 OVC100
FM 192100 26007KT P6SM BKN070 BKN120
FM 200600 17005KT P6SM SCT030 OVC050
FM 201100 17007KT P6SM BKN025 OVC040
FM 201700 18007KT P6SM -SHRA BKN030 OVC045

KBFI 191120Z 1912/2012 VRB03KT P6SM BKN080 OVC100
FM 191300 17004KT P6SM VCSH OVC060
FM 191800 27006KT P6SM BKN060
FM 200400 20005KT P6SM OVC050

KBFI 190523Z 1906/2006 31004KT P6SM FEW050 OVC170
FM 190800 00000KT P6SM OVC100
FM 191100 26004KT P6SM VCSH OVC060
FM 191800 21004KT P6SM BKN060

KBFI 182337Z 1900/1924 30006KT P6SM FEW050 SCT120 OVC200
FM 190300 32007KT P6SM OVC100
FM 190700 VRB03KT P6SM -RA BKN050 OVC090
FM 191100 VRB04KT P6SM -SHRA OVC035
FM 191900 30005KT P6SM VCSH BKN040 BKN060